Terminal Aerodrome Forecast
Issued by NWS

Home | Current Version | Previous Version | Text Only | Print | Product List | Glossary On
Versions: 1 2 3 4 5 6 7 8 9 10 11 12 13 14 15 16 17 18 19 20 21 22 23 24 25 26 27 28 29 30 31 32 33 34 35 36 37 38
000
FTUS44 KHGX 122340
TAFSGR
TAF
KSGR 122340Z 1300/1324 VRB05KT P6SM FEW050 SCT090 BKN250
     FM130900 00000KT 3SM BR SCT250
      TEMPO 1310/1312 1SM BR
     FM131300 21005KT P6SM FEW025
     FM132000 17005KT P6SM SCT050 SCT250=

USA.gov is the U.S. government's official web portal to all federal, state and local government web resources and services.